sensor_id;sensor_type;location;lat;lon;timestamp;pressure;altitude;pressure_sealevel;temperature;humidity
20119;BME280;10220;42.716;23.306;2023-02-28T00:01:25;95715.75;;;7.66;100.00
20119;BME280;10220;42.716;23.306;2023-02-28T00:03:50;95706.56;;;7.71;100.00
20119;BME280;10220;42.716;23.306;2023-02-28T00:06:16;95710.25;;;7.91;100.00
20119;BME280;10220;42.716;23.306;2023-02-28T00:08:45;95712.78;;;7.99;100.00
20119;BME280;10220;42.716;23.306;2023-02-28T00:11:11;95713.06;;;7.59;100.00
20119;BME280;10220;42.716;23.306;2023-02-28T00:13:43;95714.38;;;7.56;100.00
20119;BME280;10220;42.716;23.306;2023-02-28T00:16:14;95726.13;;;7.58;100.00
20119;BME280;10220;42.716;23.306;2023-02-28T00:18:40;95714.44;;;7.70;100.00
20119;BME280;10220;42.716;23.306;2023-02-28T00:21:06;95718.75;;;7.77;100.00
20119;BME280;10220;42.716;23.306;2023-02-28T00:23:32;95731.63;;;7.77;100.00
20119;BME280;10220;42.716;23.306;2023-02-28T00:25:58;95736.72;;;7.85;100.00
20119;BME280;10220;42.716;23.306;2023-02-28T00:28:23;95742.13;;;7.76;100.00
20119;BME280;10220;42.716;23.306;2023-02-28T00:30:49;95748.75;;;7.48;100.00
20119;BME280;10220;42.716;23.306;2023-02-28T00:33:15;95742.00;;;7.47;100.00
20119;BME280;10220;42.716;23.306;2023-02-28T00:35:41;95736.00;;;7.55;100.00
20119;BME280;10220;42.716;23.306;2023-02-28T00:38:11;95730.19;;;7.53;100.00
20119;BME280;10220;42.716;23.306;2023-02-28T00:40:37;95740.44;;;7.60;100.00
20119;BME280;10220;42.716;23.306;2023-02-28T00:43:02;95715.03;;;7.57;100.00
20119;BME280;10220;42.716;23.306;2023-02-28T00:45:29;95733.31;;;7.70;100.00
20119;BME280;10220;42.716;23.306;2023-02-28T00:47:54;95721.53;;;7.46;100.00
20119;BME280;10220;42.716;23.306;2023-02-28T00:50:20;95729.50;;;7.28;100.00
20119;BME280;10220;42.716;23.306;2023-02-28T00:52:46;95718.91;;;7.54;100.00
20119;BME280;10220;42.716;23.306;2023-02-28T00:55:12;95714.91;;;7.51;100.00
20119;BME280;10220;42.716;23.306;2023-02-28T00:57:37;95711.97;;;7.54;100.00
20119;BME280;10220;42.716;23.306;2023-02-28T01:00:04;95717.59;;;7.57;100.00
20119;BME280;10220;42.716;23.306;2023-02-28T01:02:30;95712.28;;;7.59;100.00
20119;BME280;10220;42.716;23.306;2023-02-28T01:04:55;95696.22;;;7.49;100.00
20119;BME280;10220;42.716;23.306;2023-02-28T01:07:22;95685.16;;;7.41;100.00
20119;BME280;10220;42.716;23.306;2023-02-28T01:09:48;95714.44;;;7.48;100.00
20119;BME280;10220;42.716;23.306;2023-02-28T01:12:13;95716.16;;;7.55;100.00
20119;BME280;10220;42.716;23.306;2023-02-28T01:14:39;95723.22;;;7.83;100.00
20119;BME280;10220;42.716;23.306;2023-02-28T01:17:04;95726.34;;;7.71;100.00
20119;BME280;10220;42.716;23.306;2023-02-28T01:19:30;95716.41;;;7.68;100.00
20119;BME280;10220;42.716;23.306;2023-02-28T01:21:55;95722.09;;;7.56;100.00
20119;BME280;10220;42.716;23.306;2023-02-28T01:24:21;95723.41;;;7.29;100.00
20119;BME280;10220;42.716;23.306;2023-02-28T01:26:46;95723.34;;;7.07;100.00
20119;BME280;10220;42.716;23.306;2023-02-28T01:29:12;95727.75;;;6.44;100.00
20119;BME280;10220;42.716;23.306;2023-02-28T01:31:37;95716.94;;;6.49;100.00
20119;BME280;10220;42.716;23.306;2023-02-28T01:34:02;95725.50;;;6.34;100.00
20119;BME280;10220;42.716;23.306;2023-02-28T01:36:29;95712.94;;;6.39;100.00
20119;BME280;10220;42.716;23.306;2023-02-28T01:38:54;95718.47;;;6.20;100.00
20119;BME280;10220;42.716;23.306;2023-02-28T01:41:21;95722.16;;;6.17;100.00
20119;BME280;10220;42.716;23.306;2023-02-28T01:46:14;95731.81;;;5.76;100.00
20119;BME280;10220;42.716;23.306;2023-02-28T01:51:22;95733.44;;;5.84;100.00
20119;BME280;10220;42.716;23.306;2023-02-28T01:54:00;95723.31;;;5.83;100.00
20119;BME280;10220;42.716;23.306;2023-02-28T01:56:29;95716.06;;;5.79;100.00
20119;BME280;10220;42.716;23.306;2023-02-28T01:58:55;95722.16;;;5.85;100.00
20119;BME280;10220;42.716;23.306;2023-02-28T02:01:22;95730.38;;;5.89;100.00
20119;BME280;10220;42.716;23.306;2023-02-28T02:03:50;95721.69;;;5.98;100.00
20119;BME280;10220;42.716;23.306;2023-02-28T02:06:43;95731.13;;;5.58;100.00
20119;BME280;10220;42.716;23.306;2023-02-28T02:09:09;95731.81;;;5.91;100.00
20119;BME280;10220;42.716;23.306;2023-02-28T02:11:36;95719.78;;;6.00;100.00
20119;BME280;10220;42.716;23.306;2023-02-28T02:25:28;95705.84;;;6.56;100.00
20119;BME280;10220;42.716;23.306;2023-02-28T02:39:40;95716.53;;;6.22;100.00
20119;BME280;10220;42.716;23.306;2023-02-28T02:42:25;95721.69;;;6.06;100.00
20119;BME280;10220;42.716;23.306;2023-02-28T02:45:05;95738.22;;;6.03;100.00
20119;BME280;10220;42.716;23.306;2023-02-28T02:47:33;95742.06;;;6.23;100.00
20119;BME280;10220;42.716;23.306;2023-02-28T02:50:03;95735.94;;;6.40;100.00
20119;BME280;10220;42.716;23.306;2023-02-28T02:52:36;95721.66;;;6.45;100.00
20119;BME280;10220;42.716;23.306;2023-02-28T02:55:04;95722.22;;;6.63;100.00
20119;BME280;10220;42.716;23.306;2023-02-28T02:57:46;95740.22;;;6.79;100.00
20119;BME280;10220;42.716;23.306;2023-02-28T03:00:15;95735.81;;;6.88;100.00
20119;BME280;10220;42.716;23.306;2023-02-28T03:02:42;95713.47;;;6.80;100.00
20119;BME280;10220;42.716;23.306;2023-02-28T03:05:23;95735.81;;;6.42;100.00
20119;BME280;10220;42.716;23.306;2023-02-28T03:07:49;95746.03;;;6.65;100.00
20119;BME280;10220;42.716;23.306;2023-02-28T03:15:41;95770.53;;;6.38;100.00
20119;BME280;10220;42.716;23.306;2023-02-28T03:21:43;95760.22;;;6.53;100.00
20119;BME280;10220;42.716;23.306;2023-02-28T03:24:21;95767.13;;;6.45;100.00
20119;BME280;10220;42.716;23.306;2023-02-28T03:26:54;95778.97;;;6.70;100.00
20119;BME280;10220;42.716;23.306;2023-02-28T03:29:35;95771.25;;;6.86;100.00
20119;BME280;10220;42.716;23.306;2023-02-28T03:32:08;95768.78;;;7.00;100.00
20119;BME280;10220;42.716;23.306;2023-02-28T03:34:46;95762.31;;;7.04;100.00
20119;BME280;10220;42.716;23.306;2023-02-28T03:37:19;95768.50;;;7.25;100.00
20119;BME280;10220;42.716;23.306;2023-02-28T03:39:56;95772.78;;;7.41;100.00
20119;BME280;10220;42.716;23.306;2023-02-28T03:42:29;95782.81;;;6.90;100.00
20119;BME280;10220;42.716;23.306;2023-02-28T03:45:32;95784.63;;;6.73;100.00
20119;BME280;10220;42.716;23.306;2023-02-28T03:50:49;95781.22;;;6.81;100.00
20119;BME280;10220;42.716;23.306;2023-02-28T03:53:33;95778.44;;;6.98;100.00
20119;BME280;10220;42.716;23.306;2023-02-28T04:03:57;95791.88;;;6.62;100.00
20119;BME280;10220;42.716;23.306;2023-02-28T04:06:23;95774.31;;;6.73;100.00
20119;BME280;10220;42.716;23.306;2023-02-28T04:08:50;95785.06;;;6.93;100.00
20119;BME280;10220;42.716;23.306;2023-02-28T04:11:37;95784.69;;;7.03;100.00
20119;BME280;10220;42.716;23.306;2023-02-28T04:14:04;95783.09;;;6.95;100.00
20119;BME280;10220;42.716;23.306;2023-02-28T04:16:31;95775.94;;;7.20;100.00
20119;BME280;10220;42.716;23.306;2023-02-28T04:18:56;95787.34;;;7.26;100.00
20119;BME280;10220;42.716;23.306;2023-02-28T04:21:30;95784.53;;;6.97;100.00
20119;BME280;10220;42.716;23.306;2023-02-28T04:23:57;95795.75;;;7.20;100.00
20119;BME280;10220;42.716;23.306;2023-02-28T04:26:28;95775.75;;;7.22;100.00
20119;BME280;10220;42.716;23.306;2023-02-28T04:28:54;95783.63;;;7.28;100.00
20119;BME280;10220;42.716;23.306;2023-02-28T04:31:19;95798.22;;;7.05;100.00
20119;BME280;10220;42.716;23.306;2023-02-28T04:33:44;95770.41;;;6.85;100.00
20119;BME280;10220;42.716;23.306;2023-02-28T04:36:12;95785.03;;;7.00;100.00
20119;BME280;10220;42.716;23.306;2023-02-28T04:38:39;95782.56;;;7.15;100.00
20119;BME280;10220;42.716;23.306;2023-02-28T04:41:10;95774.63;;;7.24;100.00
20119;BME280;10220;42.716;23.306;2023-02-28T04:43:36;95797.16;;;6.76;100.00
20119;BME280;10220;42.716;23.306;2023-02-28T04:46:04;95791.44;;;7.04;100.00
20119;BME280;10220;42.716;23.306;2023-02-28T04:48:32;95806.00;;;6.82;100.00
20119;BME280;10220;42.716;23.306;2023-02-28T04:51:08;95813.22;;;6.86;100.00
20119;BME280;10220;42.716;23.306;2023-02-28T04:53:35;95791.41;;;6.58;100.00
20119;BME280;10220;42.716;23.306;2023-02-28T04:56:01;95821.13;;;6.85;100.00
20119;BME280;10220;42.716;23.306;2023-02-28T04:58:27;95816.09;;;6.99;100.00
20119;BME280;10220;42.716;23.306;2023-02-28T05:00:53;95806.94;;;6.97;100.00
20119;BME280;10220;42.716;23.306;2023-02-28T05:03:19;95815.41;;;7.05;100.00
20119;BME280;10220;42.716;23.306;2023-02-28T05:05:53;95824.16;;;6.88;100.00
20119;BME280;10220;42.716;23.306;2023-02-28T05:08:18;95763.06;;;6.74;100.00
20119;BME280;10220;42.716;23.306;2023-02-28T05:10:43;95800.28;;;7.10;100.00
20119;BME280;10220;42.716;23.306;2023-02-28T05:13:14;95804.22;;;7.28;100.00
20119;BME280;10220;42.716;23.306;2023-02-28T05:15:40;95808.75;;;7.26;100.00
20119;BME280;10220;42.716;23.306;2023-02-28T05:18:05;95810.34;;;7.35;100.00
20119;BME280;10220;42.716;23.306;2023-02-28T05:20:31;95816.22;;;7.52;100.00
20119;BME280;10220;42.716;23.306;2023-02-28T05:22:58;95837.91;;;7.65;100.00
20119;BME280;10220;42.716;23.306;2023-02-28T05:25:24;95825.06;;;7.57;100.00
20119;BME280;10220;42.716;23.306;2023-02-28T05:27:55;95822.19;;;7.52;100.00
20119;BME280;10220;42.716;23.306;2023-02-28T05:30:20;95843.25;;;7.09;100.00
20119;BME280;10220;42.716;23.306;2023-02-28T05:32:50;95836.34;;;7.02;100.00
20119;BME280;10220;42.716;23.306;2023-02-28T05:35:15;95839.38;;;7.21;100.00
20119;BME280;10220;42.716;23.306;2023-02-28T05:37:41;95825.44;;;7.38;100.00
20119;BME280;10220;42.716;23.306;2023-02-28T05:40:09;95832.69;;;7.35;100.00
20119;BME280;10220;42.716;23.306;2023-02-28T05:42:38;95844.50;;;7.59;100.00
20119;BME280;10220;42.716;23.306;2023-02-28T05:45:07;95849.53;;;7.61;100.00
20119;BME280;10220;42.716;23.306;2023-02-28T05:47:35;95835.59;;;7.40;100.00
20119;BME280;10220;42.716;23.306;2023-02-28T05:50:01;95830.09;;;7.43;100.00
20119;BME280;10220;42.716;23.306;2023-02-28T05:52:28;95842.94;;;7.58;100.00
20119;BME280;10220;42.716;23.306;2023-02-28T05:54:55;95843.47;;;7.46;100.00
20119;BME280;10220;42.716;23.306;2023-02-28T05:57:20;95846.09;;;7.30;100.00
20119;BME280;10220;42.716;23.306;2023-02-28T05:59:46;95860.91;;;7.36;100.00
20119;BME280;10220;42.716;23.306;2023-02-28T06:02:16;95863.91;;;6.94;100.00
20119;BME280;10220;42.716;23.306;2023-02-28T06:04:45;95865.16;;;7.05;100.00
20119;BME280;10220;42.716;23.306;2023-02-28T06:07:13;95852.34;;;6.90;100.00
20119;BME280;10220;42.716;23.306;2023-02-28T06:09:38;95854.75;;;6.91;100.00
20119;BME280;10220;42.716;23.306;2023-02-28T06:12:05;95852.91;;;7.07;100.00
20119;BME280;10220;42.716;23.306;2023-02-28T06:14:33;95858.06;;;7.23;100.00
20119;BME280;10220;42.716;23.306;2023-02-28T06:17:02;95855.28;;;7.33;100.00
20119;BME280;10220;42.716;23.306;2023-02-28T06:19:28;95855.38;;;7.47;100.00
20119;BME280;10220;42.716;23.306;2023-02-28T06:21:55;95849.50;;;7.23;100.00
20119;BME280;10220;42.716;23.306;2023-02-28T06:24:23;95853.00;;;7.38;100.00
20119;BME280;10220;42.716;23.306;2023-02-28T06:26:51;95858.25;;;7.52;100.00
20119;BME280;10220;42.716;23.306;2023-02-28T06:29:17;95862.47;;;7.45;100.00
20119;BME280;10220;42.716;23.306;2023-02-28T06:31:46;95848.97;;;7.43;100.00
20119;BME280;10220;42.716;23.306;2023-02-28T06:34:13;95861.81;;;7.51;100.00
20119;BME280;10220;42.716;23.306;2023-02-28T06:36:41;95849.34;;;7.62;100.00
20119;BME280;10220;42.716;23.306;2023-02-28T06:39:08;95881.50;;;7.44;100.00
20119;BME280;10220;42.716;23.306;2023-02-28T06:41:36;95869.44;;;7.75;100.00
20119;BME280;10220;42.716;23.306;2023-02-28T06:44:05;95883.09;;;7.83;100.00
20119;BME280;10220;42.716;23.306;2023-02-28T06:46:36;95880.00;;;7.88;100.00
20119;BME280;10220;42.716;23.306;2023-02-28T06:49:02;95879.00;;;7.66;100.00
20119;BME280;10220;42.716;23.306;2023-02-28T06:51:27;95862.81;;;7.72;100.00
20119;BME280;10220;42.716;23.306;2023-02-28T06:53:52;95867.56;;;7.15;100.00
20119;BME280;10220;42.716;23.306;2023-02-28T06:56:19;95866.91;;;7.05;100.00
20119;BME280;10220;42.716;23.306;2023-02-28T06:58:49;95864.13;;;7.30;100.00
20119;BME280;10220;42.716;23.306;2023-02-28T07:01:16;95876.91;;;7.62;100.00
20119;BME280;10220;42.716;23.306;2023-02-28T07:03:42;95875.78;;;7.57;100.00
20119;BME280;10220;42.716;23.306;2023-02-28T07:06:10;95875.09;;;7.24;100.00
20119;BME280;10220;42.716;23.306;2023-02-28T07:08:36;95880.00;;;7.57;100.00
20119;BME280;10220;42.716;23.306;2023-02-28T07:11:02;95874.94;;;7.72;100.00
20119;BME280;10220;42.716;23.306;2023-02-28T07:13:28;95868.97;;;7.71;100.00
20119;BME280;10220;42.716;23.306;2023-02-28T07:15:55;95839.41;;;7.52;100.00
20119;BME280;10220;42.716;23.306;2023-02-28T07:18:23;95840.28;;;7.28;100.00
20119;BME280;10220;42.716;23.306;2023-02-28T07:20:52;95879.06;;;7.43;100.00
20119;BME280;10220;42.716;23.306;2023-02-28T07:23:18;95880.59;;;7.59;100.00
20119;BME280;10220;42.716;23.306;2023-02-28T07:25:44;95883.53;;;7.87;100.00
20119;BME280;10220;42.716;23.306;2023-02-28T07:28:11;95892.41;;;7.46;100.00
20119;BME280;10220;42.716;23.306;2023-02-28T07:30:36;95847.22;;;7.28;100.00
20119;BME280;10220;42.716;23.306;2023-02-28T07:33:02;95859.53;;;7.56;100.00
20119;BME280;10220;42.716;23.306;2023-02-28T07:35:36;95850.09;;;7.41;100.00
20119;BME280;10220;42.716;23.306;2023-02-28T07:38:01;95877.81;;;7.77;100.00
20119;BME280;10220;42.716;23.306;2023-02-28T07:40:28;95880.94;;;7.95;100.00
20119;BME280;10220;42.716;23.306;2023-02-28T07:42:53;95863.00;;;7.71;100.00
20119;BME280;10220;42.716;23.306;2023-02-28T07:45:19;95853.78;;;7.76;100.00
20119;BME280;10220;42.716;23.306;2023-02-28T07:47:44;95884.75;;;7.68;100.00
20119;BME280;10220;42.716;23.306;2023-02-28T07:50:13;95866.44;;;7.63;100.00
20119;BME280;10220;42.716;23.306;2023-02-28T07:52:39;95883.72;;;7.85;100.00
20119;BME280;10220;42.716;23.306;2023-02-28T07:55:07;95865.00;;;7.91;100.00
20119;BME280;10220;42.716;23.306;2023-02-28T07:57:33;95877.13;;;7.83;100.00
20119;BME280;10220;42.716;23.306;2023-02-28T07:59:58;95847.56;;;7.93;100.00
20119;BME280;10220;42.716;23.306;2023-02-28T08:02:27;95873.28;;;8.09;100.00
20119;BME280;10220;42.716;23.306;2023-02-28T08:04:52;95836.84;;;7.82;100.00
20119;BME280;10220;42.716;23.306;2023-02-28T08:07:18;95865.88;;;8.36;100.00
20119;BME280;10220;42.716;23.306;2023-02-28T08:09:46;95858.09;;;8.44;100.00
20119;BME280;10220;42.716;23.306;2023-02-28T08:12:12;95867.53;;;8.74;100.00
20119;BME280;10220;42.716;23.306;2023-02-28T08:14:37;95850.84;;;8.62;100.00
20119;BME280;10220;42.716;23.306;2023-02-28T08:17:05;95860.00;;;8.65;100.00
20119;BME280;10220;42.716;23.306;2023-02-28T08:19:30;95868.13;;;8.76;100.00
20119;BME280;10220;42.716;23.306;2023-02-28T08:21:57;95881.63;;;8.86;100.00
20119;BME280;10220;42.716;23.306;2023-02-28T08:24:22;95855.28;;;9.05;100.00
20119;BME280;10220;42.716;23.306;2023-02-28T08:26:49;95882.47;;;9.30;100.00
20119;BME280;10220;42.716;23.306;2023-02-28T08:29:15;95872.66;;;9.11;100.00
20119;BME280;10220;42.716;23.306;2023-02-28T08:31:41;95879.25;;;8.99;100.00
20119;BME280;10220;42.716;23.306;2023-02-28T08:34:11;95885.66;;;9.03;100.00
20119;BME280;10220;42.716;23.306;2023-02-28T08:36:37;95883.69;;;9.05;100.00
20119;BME280;10220;42.716;23.306;2023-02-28T08:39:06;95867.13;;;8.99;100.00
20119;BME280;10220;42.716;23.306;2023-02-28T08:41:35;95854.84;;;9.01;100.00
20119;BME280;10220;42.716;23.306;2023-02-28T08:44:00;95876.59;;;9.21;100.00
20119;BME280;10220;42.716;23.306;2023-02-28T08:46:26;95886.81;;;9.00;100.00
20119;BME280;10220;42.716;23.306;2023-02-28T08:48:53;95879.75;;;8.58;100.00
20119;BME280;10220;42.716;23.306;2023-02-28T08:51:19;95882.00;;;8.97;100.00
20119;BME280;10220;42.716;23.306;2023-02-28T08:53:51;95846.06;;;8.88;100.00
20119;BME280;10220;42.716;23.306;2023-02-28T08:56:17;95875.22;;;8.96;100.00
20119;BME280;10220;42.716;23.306;2023-02-28T08:58:44;95878.53;;;9.19;100.00
20119;BME280;10220;42.716;23.306;2023-02-28T09:01:23;95856.06;;;8.91;100.00
20119;BME280;10220;42.716;23.306;2023-02-28T09:03:50;95873.06;;;8.85;100.00
20119;BME280;10220;42.716;23.306;2023-02-28T09:06:18;95881.22;;;8.75;100.00
20119;BME280;10220;42.716;23.306;2023-02-28T09:08:43;95884.22;;;8.86;100.00
20119;BME280;10220;42.716;23.306;2023-02-28T09:11:10;95884.78;;;8.74;100.00
20119;BME280;10220;42.716;23.306;2023-02-28T09:13:35;95872.66;;;8.60;100.00
20119;BME280;10220;42.716;23.306;2023-02-28T09:16:03;95871.53;;;8.54;100.00
20119;BME280;10220;42.716;23.306;2023-02-28T09:18:29;95871.00;;;8.44;100.00
20119;BME280;10220;42.716;23.306;2023-02-28T09:20:55;95871.09;;;8.51;100.00
20119;BME280;10220;42.716;23.306;2023-02-28T09:23:21;95867.19;;;8.55;100.00
20119;BME280;10220;42.716;23.306;2023-02-28T09:25:48;95844.53;;;8.42;100.00
20119;BME280;10220;42.716;23.306;2023-02-28T09:28:14;95859.97;;;8.73;100.00
20119;BME280;10220;42.716;23.306;2023-02-28T09:30:48;95873.34;;;8.54;100.00
20119;BME280;10220;42.716;23.306;2023-02-28T09:33:14;95866.50;;;8.61;100.00
20119;BME280;10220;42.716;23.306;2023-02-28T09:35:40;95860.88;;;8.94;100.00
20119;BME280;10220;42.716;23.306;2023-02-28T09:38:06;95867.75;;;8.65;100.00
20119;BME280;10220;42.716;23.306;2023-02-28T09:40:37;95869.22;;;8.81;100.00
20119;BME280;10220;42.716;23.306;2023-02-28T09:43:04;95864.53;;;8.99;100.00
20119;BME280;10220;42.716;23.306;2023-02-28T09:45:40;95853.22;;;9.00;100.00
20119;BME280;10220;42.716;23.306;2023-02-28T09:48:14;95868.31;;;9.26;100.00
20119;BME280;10220;42.716;23.306;2023-02-28T09:51:00;95852.00;;;9.39;100.00
20119;BME280;10220;42.716;23.306;2023-02-28T09:53:29;95852.19;;;9.38;100.00
20119;BME280;10220;42.716;23.306;2023-02-28T09:56:02;95829.88;;;9.51;100.00
20119;BME280;10220;42.716;23.306;2023-02-28T10:01:17;95840.63;;;9.84;100.00
20119;BME280;10220;42.716;23.306;2023-02-28T10:04:36;95838.09;;;10.04;100.00
20119;BME280;10220;42.716;23.306;2023-02-28T10:06:44;95836.91;;;10.21;100.00
20119;BME280;10220;42.716;23.306;2023-02-28T10:09:17;95850.22;;;10.39;100.00
20119;BME280;10220;42.716;23.306;2023-02-28T10:11:44;95840.13;;;10.44;100.00
20119;BME280;10220;42.716;23.306;2023-02-28T10:14:18;95838.38;;;10.51;100.00
20119;BME280;10220;42.716;23.306;2023-02-28T10:17:05;95835.78;;;10.72;100.00
20119;BME280;10220;42.716;23.306;2023-02-28T10:19:47;95818.44;;;10.72;100.00
20119;BME280;10220;42.716;23.306;2023-02-28T10:24:58;95833.00;;;10.73;100.00
20119;BME280;10220;42.716;23.306;2023-02-28T10:27:30;95837.56;;;10.71;100.00
20119;BME280;10220;42.716;23.306;2023-02-28T10:29:57;95828.69;;;10.80;100.00
20119;BME280;10220;42.716;23.306;2023-02-28T10:32:35;95823.72;;;10.85;100.00
20119;BME280;10220;42.716;23.306;2023-02-28T10:35:10;95822.25;;;11.04;100.00
20119;BME280;10220;42.716;23.306;2023-02-28T10:37:41;95820.31;;;11.12;100.00
20119;BME280;10220;42.716;23.306;2023-02-28T10:40:30;95812.19;;;11.21;100.00
20119;BME280;10220;42.716;23.306;2023-02-28T10:43:07;95810.63;;;11.27;100.00
20119;BME280;10220;42.716;23.306;2023-02-28T10:46:18;95801.19;;;11.13;100.00
20119;BME280;10220;42.716;23.306;2023-02-28T10:49:05;95799.72;;;11.38;100.00
20119;BME280;10220;42.716;23.306;2023-02-28T10:51:37;95789.91;;;11.67;100.00
20119;BME280;10220;42.716;23.306;2023-02-28T10:54:04;95797.41;;;11.89;100.00
20119;BME280;10220;42.716;23.306;2023-02-28T10:56:30;95788.38;;;11.79;100.00
20119;BME280;10220;42.716;23.306;2023-02-28T11:01:43;95779.94;;;11.71;100.00
20119;BME280;10220;42.716;23.306;2023-02-28T11:07:21;95771.59;;;11.35;100.00
20119;BME280;10220;42.716;23.306;2023-02-28T11:09:52;95740.03;;;11.31;100.00
20119;BME280;10220;42.716;23.306;2023-02-28T11:12:37;95776.09;;;11.54;100.00
20119;BME280;10220;42.716;23.306;2023-02-28T11:15:29;95777.91;;;11.53;100.00
20119;BME280;10220;42.716;23.306;2023-02-28T11:20:32;95768.44;;;11.46;100.00
20119;BME280;10220;42.716;23.306;2023-02-28T11:23:01;95764.25;;;11.45;100.00
20119;BME280;10220;42.716;23.306;2023-02-28T11:25:38;95762.44;;;11.39;100.00
20119;BME280;10220;42.716;23.306;2023-02-28T11:28:06;95765.13;;;11.52;100.00
20119;BME280;10220;42.716;23.306;2023-02-28T11:31:00;95761.91;;;11.50;100.00
20119;BME280;10220;42.716;23.306;2023-02-28T11:36:08;95735.03;;;11.70;100.00
20119;BME280;10220;42.716;23.306;2023-02-28T11:38:35;95753.25;;;11.83;100.00
20119;BME280;10220;42.716;23.306;2023-02-28T11:41:28;95756.25;;;11.99;100.00
20119;BME280;10220;42.716;23.306;2023-02-28T11:56:50;95750.69;;;12.22;100.00
20119;BME280;10220;42.716;23.306;2023-02-28T12:07:55;95742.31;;;12.26;100.00
20119;BME280;10220;42.716;23.306;2023-02-28T12:10:30;95751.06;;;11.99;100.00
20119;BME280;10220;42.716;23.306;2023-02-28T12:20:51;95751.69;;;12.01;100.00
20119;BME280;10220;42.716;23.306;2023-02-28T12:26:22;95755.72;;;12.17;100.00
20119;BME280;10220;42.716;23.306;2023-02-28T12:28:54;95754.69;;;12.11;100.00
20119;BME280;10220;42.716;23.306;2023-02-28T12:31:31;95748.50;;;12.12;100.00
20119;BME280;10220;42.716;23.306;2023-02-28T12:34:36;95741.84;;;11.90;100.00
20119;BME280;10220;42.716;23.306;2023-02-28T12:36:55;95746.09;;;12.04;100.00
20119;BME280;10220;42.716;23.306;2023-02-28T12:39:31;95743.47;;;11.98;100.00
20119;BME280;10220;42.716;23.306;2023-02-28T12:42:05;95733.47;;;11.82;100.00
20119;BME280;10220;42.716;23.306;2023-02-28T12:47:09;95735.84;;;11.77;100.00
20119;BME280;10220;42.716;23.306;2023-02-28T12:52:10;95735.00;;;11.64;100.00
20119;BME280;10220;42.716;23.306;2023-02-28T12:54:59;95745.81;;;11.80;100.00
20119;BME280;10220;42.716;23.306;2023-02-28T12:57:47;95742.06;;;11.95;100.00
20119;BME280;10220;42.716;23.306;2023-02-28T13:00:31;95743.69;;;11.96;100.00
20119;BME280;10220;42.716;23.306;2023-02-28T13:05:54;95733.09;;;12.04;100.00
20119;BME280;10220;42.716;23.306;2023-02-28T13:14:14;95703.63;;;11.52;100.00
20119;BME280;10220;42.716;23.306;2023-02-28T13:17:26;95726.25;;;11.84;100.00
20119;BME280;10220;42.716;23.306;2023-02-28T13:20:03;95699.50;;;11.71;100.00
20119;BME280;10220;42.716;23.306;2023-02-28T13:25:01;95715.47;;;11.74;100.00
20119;BME280;10220;42.716;23.306;2023-02-28T13:27:40;95729.66;;;11.78;100.00
20119;BME280;10220;42.716;23.306;2023-02-28T13:40:29;95721.84;;;11.65;100.00
20119;BME280;10220;42.716;23.306;2023-02-28T13:42:55;95698.00;;;11.49;100.00
20119;BME280;10220;42.716;23.306;2023-02-28T13:45:25;95721.25;;;11.76;100.00
20119;BME280;10220;42.716;23.306;2023-02-28T13:48:04;95705.47;;;11.77;100.00
20119;BME280;10220;42.716;23.306;2023-02-28T13:50:40;95682.91;;;11.59;100.00
20119;BME280;10220;42.716;23.306;2023-02-28T14:06:51;95700.72;;;11.81;100.00
20119;BME280;10220;42.716;23.306;2023-02-28T14:09:28;95702.69;;;11.85;100.00
20119;BME280;10220;42.716;23.306;2023-02-28T14:21:26;95684.53;;;11.19;100.00
20119;BME280;10220;42.716;23.306;2023-02-28T14:26:57;95713.28;;;11.24;100.00
20119;BME280;10220;42.716;23.306;2023-02-28T14:32:31;95713.44;;;11.16;100.00
20119;BME280;10220;42.716;23.306;2023-02-28T14:37:42;95704.97;;;10.95;100.00
20119;BME280;10220;42.716;23.306;2023-02-28T14:40:30;95712.63;;;11.10;100.00
20119;BME280;10220;42.716;23.306;2023-02-28T14:43:03;95710.78;;;11.04;100.00
20119;BME280;10220;42.716;23.306;2023-02-28T14:45:31;95719.19;;;11.06;100.00
20119;BME280;10220;42.716;23.306;2023-02-28T14:47:58;95720.16;;;11.05;100.00
20119;BME280;10220;42.716;23.306;2023-02-28T14:50:29;95723.34;;;11.00;100.00
20119;BME280;10220;42.716;23.306;2023-02-28T14:52:57;95703.81;;;11.04;100.00
20119;BME280;10220;42.716;23.306;2023-02-28T14:55:28;95721.53;;;11.01;100.00
20119;BME280;10220;42.716;23.306;2023-02-28T14:57:57;95722.91;;;10.97;100.00
20119;BME280;10220;42.716;23.306;2023-02-28T15:00:31;95715.19;;;11.10;100.00
20119;BME280;10220;42.716;23.306;2023-02-28T15:03:01;95729.47;;;10.93;100.00
20119;BME280;10220;42.716;23.306;2023-02-28T15:08:13;95700.56;;;10.62;100.00
20119;BME280;10220;42.716;23.306;2023-02-28T15:13:19;95705.72;;;10.55;100.00
20119;BME280;10220;42.716;23.306;2023-02-28T15:16:06;95704.22;;;10.67;100.00
20119;BME280;10220;42.716;23.306;2023-02-28T15:18:40;95708.84;;;10.78;100.00
20119;BME280;10220;42.716;23.306;2023-02-28T15:21:14;95703.78;;;10.64;100.00
20119;BME280;10220;42.716;23.306;2023-02-28T15:23:42;95686.94;;;10.47;100.00
20119;BME280;10220;42.716;23.306;2023-02-28T15:26:14;95721.97;;;10.43;100.00
20119;BME280;10220;42.716;23.306;2023-02-28T15:28:41;95715.94;;;10.36;100.00
20119;BME280;10220;42.716;23.306;2023-02-28T15:31:28;95714.53;;;10.34;100.00
20119;BME280;10220;42.716;23.306;2023-02-28T15:33:56;95738.03;;;10.11;100.00
20119;BME280;10220;42.716;23.306;2023-02-28T15:36:25;95732.91;;;10.18;100.00
20119;BME280;10220;42.716;23.306;2023-02-28T15:38:53;95741.38;;;10.05;100.00
20119;BME280;10220;42.716;23.306;2023-02-28T15:41:28;95725.06;;;10.11;100.00
20119;BME280;10220;42.716;23.306;2023-02-28T15:49:40;95730.31;;;9.97;100.00